createdAt,value
2018-07-04T00:00:00.368Z,17.90
2018-07-04T00:02:40.079Z,18.10
2018-07-04T00:05:19.758Z,18.10
2018-07-04T00:07:59.294Z,17.70
2018-07-04T00:10:39.031Z,17.40
2018-07-04T00:13:18.728Z,17.80
2018-07-04T00:15:58.373Z,17.90
2018-07-04T00:18:37.962Z,17.80
2018-07-04T00:21:17.736Z,17.80
2018-07-04T00:23:57.497Z,17.80
2018-07-04T00:26:37.127Z,17.90
2018-07-04T00:31:50.242Z,17.50
2018-07-04T00:34:29.960Z,17.60
2018-07-04T00:37:09.780Z,17.60
2018-07-04T00:39:49.329Z,17.40
2018-07-04T00:42:29.166Z,17.40
2018-07-04T00:47:42.367Z,17.50
2018-07-04T00:50:22.875Z,17.40
2018-07-04T00:55:36.269Z,17.40
2018-07-04T00:58:16.050Z,17.40
2018-07-04T01:00:55.525Z,17.40
2018-07-04T01:03:35.165Z,17.30
2018-07-04T01:06:14.845Z,17.20
2018-07-04T01:08:54.566Z,17.30
2018-07-04T01:11:34.307Z,17.10
2018-07-04T01:14:13.959Z,17.00
2018-07-04T01:16:53.584Z,17.10
2018-07-04T01:19:33.340Z,17.20
2018-07-04T01:22:13.069Z,17.20
2018-07-04T01:24:52.795Z,16.90
2018-07-04T01:27:32.483Z,16.90
2018-07-04T01:30:12.077Z,17.10
2018-07-04T01:37:58.872Z,17.10
2018-07-04T01:40:38.549Z,17.10
2018-07-04T01:43:18.353Z,17.00
2018-07-04T01:45:58.132Z,17.00
2018-07-04T01:48:37.870Z,17.20
2018-07-04T01:51:17.550Z,17.00
2018-07-04T01:53:57.133Z,16.90
2018-07-04T01:56:36.870Z,17.10
2018-07-04T01:59:16.570Z,17.00
2018-07-04T02:01:56.303Z,17.00
2018-07-04T02:04:35.949Z,16.90
2018-07-04T02:07:15.731Z,16.90
2018-07-04T02:09:55.191Z,16.90
2018-07-04T02:12:34.794Z,17.10
2018-07-04T02:15:14.453Z,17.00
2018-07-04T02:17:54.008Z,17.20
2018-07-04T02:20:33.657Z,17.10
2018-07-04T02:23:13.477Z,17.00
2018-07-04T02:25:53.208Z,17.10
2018-07-04T02:28:32.906Z,16.80
2018-07-04T02:31:12.555Z,16.80
2018-07-04T02:33:52.336Z,16.70
2018-07-04T02:36:32.051Z,16.80
2018-07-04T02:39:11.666Z,16.90
2018-07-04T02:41:51.298Z,16.90
2018-07-04T02:44:31.085Z,16.70
2018-07-04T02:47:28.380Z,16.40
2018-07-04T02:50:08.919Z,16.50
2018-07-04T02:52:48.933Z,16.30
2018-07-04T02:55:28.947Z,16.20
2018-07-04T02:58:09.037Z,16.60
2018-07-04T03:00:48.682Z,16.50
2018-07-04T03:03:28.394Z,16.50
2018-07-04T03:06:08.053Z,16.40
2018-07-04T03:08:47.641Z,16.30
2018-07-04T03:11:27.390Z,16.50
2018-07-04T03:14:07.169Z,16.40
2018-07-04T03:16:46.968Z,16.40
2018-07-04T03:19:26.827Z,16.60
2018-07-04T03:22:06.429Z,16.20
2018-07-04T03:24:46.177Z,16.10
2018-07-04T03:27:25.885Z,15.80
2018-07-04T03:30:05.409Z,15.70
2018-07-04T03:32:45.118Z,15.70
2018-07-04T03:35:24.609Z,15.90
2018-07-04T03:38:04.438Z,15.80
2018-07-04T03:40:44.061Z,15.80
2018-07-04T03:43:23.740Z,16.10
2018-07-04T03:46:03.539Z,16.20
2018-07-04T03:48:43.287Z,16.20
2018-07-04T03:51:23.030Z,16.10
2018-07-04T03:54:02.653Z,15.80
2018-07-04T03:56:42.529Z,15.70
2018-07-04T03:59:22.207Z,15.80
2018-07-04T04:02:01.831Z,15.50
2018-07-04T04:07:15.001Z,15.80
2018-07-04T04:09:54.817Z,16.00
2018-07-04T04:12:35.526Z,15.70
2018-07-04T04:15:15.185Z,15.60
2018-07-04T04:17:55.713Z,15.60
2018-07-04T04:20:35.435Z,15.70
2018-07-04T04:23:15.690Z,15.70
2018-07-04T04:25:55.261Z,15.60
2018-07-04T04:28:35.186Z,15.90
2018-07-04T04:33:48.574Z,15.80
2018-07-04T04:36:28.038Z,15.90
2018-07-04T04:39:07.717Z,16.00
2018-07-04T04:41:47.429Z,16.10
2018-07-04T04:44:27.137Z,16.10
2018-07-04T04:47:06.827Z,16.10
2018-07-04T04:49:46.589Z,16.30
2018-07-04T04:52:26.305Z,16.10
2018-07-04T04:55:06.026Z,16.00
2018-07-04T04:57:45.565Z,15.90
2018-07-04T05:00:25.278Z,15.90
2018-07-04T05:03:04.834Z,16.00
2018-07-04T05:05:44.693Z,15.90
2018-07-04T05:08:24.351Z,16.00
2018-07-04T05:11:04.009Z,15.90
2018-07-04T05:13:43.697Z,15.90
2018-07-04T05:16:23.420Z,16.10
2018-07-04T05:19:03.161Z,16.20
2018-07-04T05:21:42.872Z,16.40
2018-07-04T05:24:22.608Z,16.50
2018-07-04T05:27:02.296Z,16.70
2018-07-04T05:29:41.964Z,16.80
2018-07-04T05:32:21.524Z,16.80
2018-07-04T05:35:01.620Z,16.70
2018-07-04T05:37:41.199Z,16.50
2018-07-04T05:40:20.793Z,16.40
2018-07-04T05:43:00.513Z,16.30
2018-07-04T05:45:40.247Z,16.30
2018-07-04T05:48:19.777Z,16.30
2018-07-04T05:50:59.374Z,16.40
2018-07-04T05:53:39.215Z,16.50
2018-07-04T05:56:18.945Z,16.60
2018-07-04T05:58:58.549Z,16.70
2018-07-04T06:01:38.151Z,16.90
2018-07-04T06:04:18.133Z,16.90
2018-07-04T06:06:57.830Z,17.00
2018-07-04T06:09:37.493Z,17.20
2018-07-04T06:12:17.265Z,17.30
2018-07-04T06:14:56.873Z,17.40
2018-07-04T06:17:36.837Z,17.50
2018-07-04T06:22:51.313Z,17.60
2018-07-04T06:25:30.953Z,17.60
2018-07-04T06:30:44.246Z,17.90
2018-07-04T06:33:24.036Z,17.90
2018-07-04T06:36:03.701Z,18.00
2018-07-04T06:38:43.227Z,18.10
2018-07-04T06:41:22.814Z,18.20
2018-07-04T06:44:02.351Z,18.20
2018-07-04T06:46:42.054Z,18.40
2018-07-04T06:49:21.705Z,18.50
2018-07-04T06:54:35.133Z,19.00
2018-07-04T06:57:14.874Z,19.10
2018-07-04T06:59:54.440Z,19.10
2018-07-04T07:02:34.153Z,19.10
2018-07-04T07:05:13.734Z,19.10
2018-07-04T07:07:53.440Z,19.10
2018-07-04T07:10:33.145Z,19.40
2018-07-04T07:13:12.713Z,19.50
2018-07-04T07:15:52.429Z,19.70
2018-07-04T07:18:32.129Z,20.10
2018-07-04T07:23:45.380Z,20.70
2018-07-04T07:26:25.076Z,20.80
2018-07-04T07:29:04.729Z,20.90
2018-07-04T07:31:44.333Z,21.20
2018-07-04T07:34:23.913Z,21.40
2018-07-04T07:37:03.570Z,21.50
2018-07-04T07:39:43.174Z,21.70
2018-07-04T07:42:22.910Z,21.60
2018-07-04T07:45:03.346Z,21.60
2018-07-04T07:47:42.788Z,22.00
2018-07-04T07:50:22.510Z,21.90
2018-07-04T07:55:36.192Z,22.60
2018-07-04T07:58:16.210Z,22.80
2018-07-04T08:00:55.946Z,22.80
2018-07-04T08:03:35.712Z,22.70
2018-07-04T08:06:15.669Z,22.80
2018-07-04T08:11:29.728Z,23.10
2018-07-04T08:14:09.540Z,23.00
2018-07-04T08:16:49.309Z,23.30
2018-07-04T08:19:29.034Z,23.50
2018-07-04T08:22:08.545Z,23.70
2018-07-04T08:24:48.204Z,24.00
2018-07-04T08:27:28.060Z,23.80
2018-07-04T08:32:41.201Z,24.00
2018-07-04T08:35:21.049Z,24.30
2018-07-04T08:38:00.671Z,24.60
2018-07-04T08:40:40.569Z,24.80
2018-07-04T08:43:20.146Z,25.00
2018-07-04T08:45:59.915Z,24.90
2018-07-04T08:48:39.698Z,25.10
2018-07-04T08:51:19.417Z,25.30
2018-07-04T08:53:59.317Z,25.50
2018-07-04T08:56:39.282Z,25.50
2018-07-04T08:59:18.853Z,25.60
2018-07-04T09:01:58.404Z,25.70
2018-07-04T09:04:38.289Z,25.90
2018-07-04T09:07:17.972Z,26.10
2018-07-04T09:09:57.688Z,26.00
2018-07-04T09:12:37.584Z,26.20
2018-07-04T09:15:17.377Z,26.30
2018-07-04T09:20:30.477Z,26.40
2018-07-04T09:23:10.145Z,26.40
2018-07-04T09:25:49.956Z,26.30
2018-07-04T09:28:29.823Z,26.60
2018-07-04T09:31:09.533Z,26.80
2018-07-04T09:33:49.185Z,27.30
2018-07-04T09:36:28.978Z,27.60
2018-07-04T09:41:42.078Z,27.50
2018-07-04T09:44:21.595Z,27.20
2018-07-04T09:47:01.322Z,27.20
2018-07-04T09:49:41.057Z,27.20
2018-07-04T09:52:20.935Z,27.20
2018-07-04T09:55:00.469Z,27.90
2018-07-04T09:57:39.973Z,28.40
2018-07-04T10:02:53.362Z,29.00
2018-07-04T10:05:33.104Z,29.00
2018-07-04T10:08:12.800Z,29.50
2018-07-04T10:10:52.521Z,30.50
2018-07-04T10:13:32.137Z,30.90
2018-07-04T10:16:12.508Z,31.00
2018-07-04T10:18:52.235Z,30.20
2018-07-04T10:21:31.919Z,29.60
2018-07-04T10:24:11.575Z,29.50
2018-07-04T10:26:51.299Z,29.90
2018-07-04T10:29:30.893Z,29.60
2018-07-04T10:32:10.419Z,29.90
2018-07-04T10:37:24.082Z,30.20
2018-07-04T10:40:03.852Z,29.90
2018-07-04T10:42:43.665Z,29.90
2018-07-04T10:47:57.708Z,29.10
2018-07-04T10:50:37.478Z,29.30
2018-07-04T10:53:17.153Z,29.60
2018-07-04T10:55:56.833Z,29.50
2018-07-04T10:58:36.555Z,29.60
2018-07-04T11:01:16.270Z,29.80
2018-07-04T11:03:55.960Z,30.70
2018-07-04T11:06:35.723Z,31.00
2018-07-04T11:09:15.593Z,30.90
2018-07-04T11:11:55.276Z,31.20
2018-07-04T11:14:34.813Z,31.30
2018-07-04T11:17:14.569Z,31.00
2018-07-04T11:19:54.260Z,31.30
2018-07-04T11:22:33.878Z,30.90
2018-07-04T11:25:13.527Z,30.00
2018-07-04T11:27:53.143Z,29.30
2018-07-04T11:30:32.816Z,28.80
2018-07-04T11:33:12.497Z,28.80
2018-07-04T11:35:52.032Z,28.80
2018-07-04T11:38:31.913Z,29.10
2018-07-04T11:41:11.573Z,29.80
2018-07-04T11:43:51.296Z,30.60
2018-07-04T11:46:30.982Z,30.70
2018-07-04T11:49:10.590Z,30.70
2018-07-04T11:51:50.275Z,30.50
2018-07-04T11:57:03.709Z,30.20
2018-07-04T11:59:43.274Z,30.10
2018-07-04T12:02:22.752Z,30.00
2018-07-04T12:05:02.400Z,30.60
2018-07-04T12:07:41.958Z,31.60
2018-07-04T12:12:55.141Z,30.40
2018-07-04T12:15:34.769Z,30.50
2018-07-04T12:18:14.560Z,31.20
2018-07-04T12:20:54.280Z,30.90
2018-07-04T12:23:33.969Z,30.80
2018-07-04T12:26:13.697Z,30.70
2018-07-04T12:28:54.059Z,30.50
2018-07-04T12:31:33.641Z,30.60
2018-07-04T12:34:13.234Z,30.40
2018-07-04T12:36:52.925Z,30.80
2018-07-04T12:39:32.566Z,31.60
2018-07-04T12:44:46.502Z,31.40
2018-07-04T12:47:26.354Z,31.60
2018-07-04T12:50:05.922Z,31.20
2018-07-04T12:52:45.553Z,31.10
2018-07-04T12:55:29.386Z,30.70
2018-07-04T12:58:09.114Z,30.70
2018-07-04T13:00:48.843Z,30.60
2018-07-04T13:03:28.537Z,30.30
2018-07-04T13:06:08.250Z,30.30
2018-07-04T13:08:47.925Z,30.20
2018-07-04T13:14:01.527Z,30.50
2018-07-04T13:16:40.960Z,30.50
2018-07-04T13:19:20.869Z,30.40
2018-07-04T13:22:00.485Z,30.70
2018-07-04T13:24:40.105Z,30.90
2018-07-04T13:27:19.960Z,30.60
2018-07-04T13:29:59.913Z,30.40
2018-07-04T13:32:39.636Z,30.30
2018-07-04T13:35:19.327Z,30.30
2018-07-04T13:37:59.148Z,30.10
2018-07-04T13:40:38.776Z,30.00
2018-07-04T13:43:18.470Z,29.90
2018-07-04T13:48:32.614Z,29.70
2018-07-04T13:51:12.549Z,29.70
2018-07-04T13:53:52.236Z,29.90
2018-07-04T13:56:32.237Z,29.90
2018-07-04T13:59:11.931Z,29.60
2018-07-04T14:01:52.031Z,29.40
2018-07-04T14:04:31.637Z,28.60
2018-07-04T14:07:11.150Z,27.90
2018-07-04T14:09:50.732Z,27.50
2018-07-04T14:12:30.454Z,27.30
2018-07-04T14:15:10.305Z,27.10
2018-07-04T14:17:49.905Z,26.90
2018-07-04T14:20:29.523Z,26.60
2018-07-04T14:23:09.124Z,26.60
2018-07-04T14:28:22.709Z,26.60
2018-07-04T14:31:02.635Z,26.30
2018-07-04T14:33:42.357Z,26.30
2018-07-04T14:38:56.367Z,26.40
2018-07-04T14:41:36.155Z,26.20
2018-07-04T14:44:16.213Z,26.10
2018-07-04T14:46:55.969Z,26.10
2018-07-04T14:52:09.554Z,26.00
2018-07-04T14:54:49.144Z,26.00
2018-07-04T14:57:28.794Z,25.90
2018-07-04T15:00:08.466Z,25.80
2018-07-04T15:02:48.003Z,25.70
2018-07-04T15:05:27.953Z,25.50
2018-07-04T15:08:07.690Z,25.40
2018-07-04T15:10:47.322Z,25.30
2018-07-04T15:16:00.824Z,24.90
2018-07-04T15:18:40.607Z,24.90
2018-07-04T15:21:20.223Z,24.90
2018-07-04T15:23:59.883Z,25.00
2018-07-04T15:26:39.566Z,25.00
2018-07-04T15:29:19.678Z,25.00
2018-07-04T15:31:59.310Z,25.00
2018-07-04T15:34:38.957Z,25.10
2018-07-04T15:37:18.517Z,25.20
2018-07-04T15:39:58.227Z,25.30
2018-07-04T15:42:37.980Z,25.30
2018-07-04T15:45:17.860Z,25.40
2018-07-04T15:47:57.627Z,25.30
2018-07-04T15:50:37.361Z,25.40
2018-07-04T15:53:17.132Z,25.50
2018-07-04T15:55:56.756Z,25.60
2018-07-04T15:58:36.362Z,25.60
2018-07-04T16:01:16.149Z,25.60
2018-07-04T16:03:55.765Z,25.60
2018-07-04T16:06:35.643Z,25.70
2018-07-04T16:09:15.365Z,25.80
2018-07-04T16:14:28.657Z,26.00
2018-07-04T16:17:08.317Z,26.00
2018-07-04T16:19:48.062Z,26.00
2018-07-04T16:22:27.737Z,26.20
2018-07-04T16:25:07.394Z,26.30
2018-07-04T16:27:47.113Z,26.30
2018-07-04T16:30:26.717Z,26.40
2018-07-04T16:33:06.366Z,26.50
2018-07-04T16:35:46.445Z,26.60
2018-07-04T16:38:26.031Z,26.70
2018-07-04T16:41:05.887Z,26.70
2018-07-04T16:43:45.682Z,26.80
2018-07-04T16:46:25.497Z,26.70
2018-07-04T16:49:05.142Z,26.60
2018-07-04T16:51:44.892Z,26.40
2018-07-04T16:54:24.486Z,26.40
2018-07-04T16:59:38.874Z,26.20
2018-07-04T17:02:18.496Z,26.10
2018-07-04T17:04:58.203Z,26.10
2018-07-04T17:07:37.821Z,26.00
2018-07-04T17:10:17.568Z,25.90
2018-07-04T17:12:57.127Z,25.90
2018-07-04T17:15:36.826Z,25.90
2018-07-04T17:18:16.573Z,25.90
2018-07-04T17:20:56.366Z,25.90
2018-07-04T17:23:36.062Z,25.80
2018-07-04T17:26:15.882Z,25.80
2018-07-04T17:31:29.382Z,25.80
2018-07-04T17:34:08.980Z,25.70
2018-07-04T17:36:48.744Z,25.70
2018-07-04T17:39:28.417Z,25.70
2018-07-04T17:42:07.964Z,25.70
2018-07-04T17:44:47.662Z,25.60
2018-07-04T17:47:27.202Z,25.50
2018-07-04T17:50:06.898Z,25.50
2018-07-04T17:52:46.563Z,25.50
2018-07-04T17:55:26.150Z,25.40
2018-07-04T17:58:05.743Z,25.40
2018-07-04T18:00:45.349Z,25.30
2018-07-04T18:03:25.011Z,25.00
2018-07-04T18:06:05.091Z,24.80
2018-07-04T18:08:44.766Z,24.70
2018-07-04T18:11:24.525Z,24.50
2018-07-04T18:14:04.135Z,24.60
2018-07-04T18:16:43.709Z,24.50
2018-07-04T18:19:23.502Z,24.50
2018-07-04T18:22:03.532Z,24.50
2018-07-04T18:24:43.313Z,24.60
2018-07-04T18:29:57.445Z,24.40
2018-07-04T18:32:37.062Z,24.40
2018-07-04T18:35:17.530Z,24.30
2018-07-04T18:37:57.126Z,24.30
2018-07-04T18:40:36.883Z,24.10
2018-07-04T18:43:16.422Z,23.90
2018-07-04T18:48:29.724Z,23.80
2018-07-04T18:51:09.467Z,23.80
2018-07-04T18:53:49.094Z,23.70
2018-07-04T18:56:28.760Z,23.70
2018-07-04T18:59:08.324Z,23.70
2018-07-04T19:04:21.972Z,23.70
2018-07-04T19:07:01.706Z,23.70
2018-07-04T19:09:41.495Z,23.70
2018-07-04T19:16:24.207Z,23.60
2018-07-04T19:19:03.832Z,23.50
2018-07-04T19:21:43.490Z,23.50
2018-07-04T19:24:23.235Z,23.30
2018-07-04T19:27:02.871Z,23.20
2018-07-04T19:29:42.526Z,23.10
2018-07-04T19:32:22.312Z,23.20
2018-07-04T19:35:01.935Z,23.20
2018-07-04T19:37:41.679Z,23.10
2018-07-04T19:42:54.853Z,23.10
2018-07-04T19:45:34.379Z,23.10
2018-07-04T19:48:14.064Z,23.10
2018-07-04T19:50:53.725Z,23.10
2018-07-04T19:53:33.284Z,23.10
2018-07-04T19:56:13.181Z,23.00
2018-07-04T19:58:53.317Z,22.90
2018-07-04T20:01:33.109Z,22.80
2018-07-04T20:04:12.744Z,22.60
2018-07-04T20:06:52.422Z,22.70
2018-07-04T20:09:32.167Z,22.50
2018-07-04T20:12:11.898Z,22.40
2018-07-04T20:14:51.485Z,22.40
2018-07-04T20:17:31.269Z,22.40
2018-07-04T20:20:11.060Z,22.50
2018-07-04T20:22:50.760Z,22.50
2018-07-04T20:25:30.630Z,22.40
2018-07-04T20:28:10.214Z,22.30
2018-07-04T20:30:49.985Z,22.30
2018-07-04T20:33:29.534Z,22.10
2018-07-04T20:36:09.730Z,21.90
2018-07-04T20:41:23.360Z,21.70
2018-07-04T20:44:03.357Z,21.70
2018-07-04T20:46:43.078Z,21.60
2018-07-04T20:49:22.809Z,21.60
2018-07-04T20:52:02.599Z,21.60
2018-07-04T20:54:42.274Z,21.50
2018-07-04T20:57:21.912Z,21.30
2018-07-04T21:00:01.558Z,21.40
2018-07-04T21:02:41.302Z,21.30
2018-07-04T21:05:20.926Z,21.40
2018-07-04T21:08:00.886Z,21.40
2018-07-04T21:10:40.585Z,21.20
2018-07-04T21:13:20.170Z,21.10
2018-07-04T21:15:59.729Z,21.10
2018-07-04T21:18:39.543Z,21.00
2018-07-04T21:21:19.064Z,20.80
2018-07-04T21:23:58.851Z,21.00
2018-07-04T21:26:38.497Z,20.90
2018-07-04T21:29:18.044Z,20.80
2018-07-04T21:31:57.611Z,20.70
2018-07-04T21:34:37.069Z,20.70
2018-07-04T21:37:17.419Z,20.60
2018-07-04T21:39:57.301Z,20.20
2018-07-04T21:42:37.020Z,20.40
2018-07-04T21:45:16.517Z,20.30
2018-07-04T21:47:56.253Z,20.30
2018-07-04T21:50:35.898Z,20.30
2018-07-04T21:53:15.702Z,20.10
2018-07-04T21:55:55.417Z,19.90
2018-07-04T21:58:35.077Z,20.10
2018-07-04T22:01:14.653Z,20.10
2018-07-04T22:03:54.594Z,19.70
2018-07-04T22:06:34.213Z,19.80
2018-07-04T22:09:14.051Z,19.60
2018-07-04T22:11:53.803Z,19.60
2018-07-04T22:14:33.734Z,19.70
2018-07-04T22:17:13.517Z,19.80
2018-07-04T22:19:53.112Z,19.70
2018-07-04T22:22:33.015Z,19.50
2018-07-04T22:25:12.617Z,19.60
2018-07-04T22:27:52.499Z,19.60
2018-07-04T22:30:32.539Z,19.50
2018-07-04T22:33:12.304Z,19.50
2018-07-04T22:35:51.964Z,19.40
2018-07-04T22:38:31.749Z,19.30
2018-07-04T22:41:11.537Z,19.30
2018-07-04T22:43:51.158Z,19.00
2018-07-04T22:46:30.880Z,19.10
2018-07-04T22:49:10.687Z,19.10
2018-07-04T22:54:24.289Z,18.90
2018-07-04T22:57:03.954Z,18.80
2018-07-04T22:59:44.184Z,19.00
2018-07-04T23:02:23.795Z,19.00
2018-07-04T23:07:37.219Z,18.60
2018-07-04T23:10:17.807Z,18.70
2018-07-04T23:12:57.538Z,18.80
2018-07-04T23:15:37.534Z,18.40
2018-07-04T23:18:17.305Z,18.50
2018-07-04T23:20:56.825Z,18.60
2018-07-04T23:23:36.622Z,18.80
2018-07-04T23:26:16.200Z,18.60
2018-07-04T23:31:29.760Z,18.10
2018-07-04T23:34:09.545Z,18.20
2018-07-04T23:36:49.394Z,18.40
2018-07-04T23:39:29.225Z,18.20
2018-07-04T23:42:08.808Z,18.30
2018-07-04T23:44:48.458Z,18.40
2018-07-04T23:47:28.109Z,18.40
2018-07-04T23:50:08.044Z,18.50
2018-07-04T23:59:43.852Z,18.30
